Superrunner — SVAF2 — position and weather

sailwx.info

Track history (hours):
 
Tides and Currents Weather Stations Pressure Air Temp Water Temp Dewpoint Dewpoint Depression Visibility Wind Speed Wind Dir Waves Ship Positions

Superrunner

Last reported at 2017-Oct-02 12:59 UTC. Time now 2017-Oct-19 09:15 UTC.
Position N 37°57' E 023°38'.
Warning: this ship's position is 16 days out of date.

Length 100 m; draft 2.5 m.

Type: Ship. MMSI: 240931000.

Date/timePositionNaut miles runAvg speedWind from/ knotsBaromVisibWave heightAir tempDewpointWater temp
2017-Oct-02 12:59N 37°57' E 023°38'0 0.0
2017-Oct-02 12:29N 37°57' E 023°38'0 0.0
2017-Oct-02 12:00N 37°57' E 023°38'2 4.6
2017-Oct-02 11:30N 37°54' E 023°37'918.4
2017-Oct-02 11:00N 37°46' E 023°42'1019.6
2017-Oct-02 10:30N 37°39' E 023°51'1715.3
2017-Oct-02 09:22N 37°52' E 024°05'821.2
2017-Oct-02 09:00N 37°60' E 024°03'2 0.2
2017-Oct-01 18:19N 38°01' E 024°01'4227.4
2017-Oct-01 16:46N 37°41' E 024°48'1129.5
2017-Oct-01 16:23N 37°36' E 025°00'821.2
2017-Oct-01 16:00N 37°32' E 025°09'918.4
2017-Oct-01 15:30N 37°28' E 025°20'612.7
2017-Oct-01 15:01N 37°22' E 025°17'1529.0
2017-Oct-01 14:30N 37°09' E 025°09'3 5.1
2017-Oct-01 14:00N 37°06' E 025°08'1122.9
2017-Oct-01 13:31N 37°06' E 025°22'815.4
2017-Oct-01 13:01N 36°60' E 025°17'0 0.1
2017-Oct-01 09:25N 36°59' E 025°18'819.8
2017-Oct-01 09:00N 37°06' E 025°22'1119.9
2017-Oct-01 08:28N 37°07' E 025°09'2 3.8
2017-Oct-01 08:01N 37°06' E 025°07'1530.1
2017-Oct-01 07:31N 37°20' E 025°16'917.2
2017-Oct-01 07:01N 37°28' E 025°19'918.1
2017-Oct-01 06:31N 37°32' E 025°09'1326.3
2017-Oct-01 06:00N 37°38' E 024°54'3429.4
2017-Oct-01 04:52N 37°55' E 024°17'1029.7
2017-Oct-01 04:30N 37°59' E 024°05'4 0.1
2017-Sep-29 19:57N 38°01' E 024°01'4227.0
2017-Sep-29 18:23N 37°41' E 024°48'1129.8
2017-Sep-29 18:01N 37°36' E 025°00'919.0
2017-Sep-29 17:30N 37°31' E 025°10'815.9
2017-Sep-29 17:00N 37°28' E 025°20'918.6
2017-Sep-29 16:31N 37°32' E 025°09'1524.1
2017-Sep-29 15:54N 37°41' E 024°54'3225.4
2017-Sep-29 14:38N 37°57' E 024°19'528.8
2017-Sep-29 14:28N 37°58' E 024°13'10 0.5
2017-Sep-28 18:27N 38°01' E 024°01'4225.0
2017-Sep-28 16:45N 37°44' E 024°50'930.2
2017-Sep-28 16:28N 37°38' E 024°58'1123.2
2017-Sep-28 16:01N 37°32' E 025°09'918.6
2017-Sep-28 15:30N 37°28' E 025°20'713.6
2017-Sep-28 15:01N 37°21' E 025°17'1529.7
2017-Sep-28 14:31N 37°08' E 025°09'2 4.5
2017-Sep-28 14:01N 37°06' E 025°07'1223.1
2017-Sep-28 13:31N 37°06' E 025°22'713.1
2017-Sep-28 13:01N 37°01' E 025°17'2 0.5
2017-Sep-28 09:35N 36°59' E 025°18'231.5
2017-Sep-28 09:31N 37°01' E 025°18'612.8
2017-Sep-28 09:01N 37°07' E 025°21'1121.4
2017-Sep-28 08:30N 37°05' E 025°08'510.0
2017-Sep-28 07:59N 37°10' E 025°10'1430.6
2017-Sep-28 07:31N 37°23' E 025°17'5 9.7
2017-Sep-28 07:01N 37°28' E 025°18'917.4
2017-Sep-28 06:31N 37°32' E 025°08'1529.5
2017-Sep-28 06:01N 37°41' E 024°53'3227.5
2017-Sep-28 04:50N 37°55' E 024°16'929.2
2017-Sep-28 04:30N 37°59' E 024°06'4 0.4
2017-Sep-27 18:08N 38°01' E 024°01'110.7
2017-Sep-27 18:01N 38°01' E 024°02'4130.0
2017-Sep-27 16:39N 37°41' E 024°47'430.0
2017-Sep-27 16:31N 37°38' E 024°52'1529.5
2017-Sep-27 16:00N 37°32' E 025°09'917.1
2017-Sep-27 15:30N 37°28' E 025°18'510.7
2017-Sep-27 15:01N 37°23' E 025°17'1729.8
2017-Sep-27 14:27N 37°08' E 025°08'3 5.8
2017-Sep-27 14:00N 37°05' E 025°08'1122.1
2017-Sep-27 13:31N 37°07' E 025°21'612.0
2017-Sep-27 13:01N 37°02' E 025°18'3 0.7
2017-Sep-27 09:31N 36°59' E 025°17'031.4
2017-Sep-27 09:31N 36°60' E 025°18'815.1
2017-Sep-27 09:00N 37°06' E 025°22'1122.6
2017-Sep-27 08:31N 37°06' E 025°08'0 0.7
2017-Sep-27 08:00N 37°06' E 025°07'1530.8
2017-Sep-27 07:31N 37°20' E 025°16'816.5
2017-Sep-27 07:00N 37°28' E 025°19'918.2
2017-Sep-27 06:30N 37°32' E 025°09'1224.4
2017-Sep-27 06:01N 37°37' E 024°55'3529.8
2017-Sep-27 04:49N 37°54' E 024°16'929.5
2017-Sep-27 04:30N 37°59' E 024°06'5 0.5
2017-Sep-26 18:02N 38°01' E 024°01'110.8
2017-Sep-26 17:58N 38°01' E 024°02'4129.9
2017-Sep-26 16:35N 37°41' E 024°47'230.3
2017-Sep-26 16:30N 37°40' E 024°50'1530.6
2017-Sep-26 16:01N 37°32' E 025°07'815.4
2017-Sep-26 15:31N 37°29' E 025°15'510.6
2017-Sep-26 15:00N 37°24' E 025°17'1630.6
2017-Sep-26 14:29N 37°09' E 025°09'4 8.5
2017-Sep-26 14:00N 37°05' E 025°08'1020.5
2017-Sep-26 13:31N 37°07' E 025°21'611.9
2017-Sep-26 13:01N 37°02' E 025°18'3 0.8
2017-Sep-26 09:23N 36°59' E 025°18'821.0
2017-Sep-26 09:00N 37°06' E 025°22'918.5
2017-Sep-26 08:30N 37°09' E 025°11'4 8.5
2017-Sep-26 08:00N 37°06' E 025°08'1530.4
2017-Sep-26 07:31N 37°19' E 025°15'918.5
2017-Sep-26 07:00N 37°28' E 025°19'918.2
2017-Sep-26 06:30N 37°32' E 025°09'1223.6
2017-Sep-26 06:01N 37°37' E 024°56'3630.1
2017-Sep-26 04:49N 37°55' E 024°16'1029.9
2017-Sep-26 04:30N 37°59' E 024°06'4 0.4
2017-Sep-25 18:08N 38°01' E 024°01'215.6
2017-Sep-25 18:00N 38°01' E 024°03'4030.2
2017-Sep-25 16:40N 37°40' E 024°47'530.2
2017-Sep-25 16:31N 37°38' E 024°53'1428.6
2017-Sep-25 16:00N 37°32' E 025°09'917.6
2017-Sep-25 15:30N 37°28' E 025°19'4 7.1
2017-Sep-25 15:01N 37°25' E 025°17'1530.5
2017-Sep-25 14:31N 37°11' E 025°09'610.8
2017-Sep-25 14:00N 37°05' E 025°08'1021.5
2017-Sep-25 13:31N 37°07' E 025°21'612.6
2017-Sep-25 13:01N 37°01' E 025°18'2 0.6
2017-Sep-25 09:25N 36°59' E 025°18'819.4
2017-Sep-25 09:01N 37°06' E 025°22'1120.6
2017-Sep-25 08:29N 37°07' E 025°09'2 3.8
2017-Sep-25 08:00N 37°06' E 025°08'1530.3
2017-Sep-25 07:31N 37°20' E 025°16'917.4
2017-Sep-25 07:00N 37°28' E 025°19'918.2
2017-Sep-25 06:30N 37°32' E 025°09'1325.4
2017-Sep-25 06:01N 37°37' E 024°55'3529.7
2017-Sep-25 04:50N 37°55' E 024°16'929.5
2017-Sep-25 04:31N 37°59' E 024°06'4 0.4
2017-Sep-24 18:31N 38°01' E 024°01'0 7.3
2017-Sep-24 18:30N 38°01' E 024°01'4227.4
2017-Sep-24 16:58N 37°41' E 024°47'1328.5
2017-Sep-24 16:31N 37°34' E 025°02'612.6
2017-Sep-24 16:01N 37°32' E 025°09'918.5
2017-Sep-24 15:30N 37°28' E 025°20'612.0
2017-Sep-24 15:01N 37°22' E 025°17'1530.2
2017-Sep-24 14:30N 37°08' E 025°09'3 5.2
2017-Sep-24 14:00N 37°06' E 025°08'1223.4
2017-Sep-24 13:30N 37°06' E 025°22'612.4
2017-Sep-24 13:01N 37°02' E 025°17'6 1.5
2017-Sep-24 09:13N 37°06' E 025°21'1 3.0
2017-Sep-24 09:01N 37°06' E 025°22'1121.4
2017-Sep-24 08:30N 37°08' E 025°09'1 2.8
2017-Sep-24 08:00N 37°06' E 025°08'1530.6
2017-Sep-24 07:30N 37°20' E 025°16'816.1
2017-Sep-24 07:01N 37°28' E 025°19'918.2
2017-Sep-24 06:30N 37°32' E 025°09'1224.6
2017-Sep-24 06:00N 37°37' E 024°55'3529.8
2017-Sep-24 04:50N 37°55' E 024°17'929.0
2017-Sep-24 04:30N 37°59' E 024°06'  
Track history (hours):
 
Tides and Currents Weather Stations Pressure Air Temp Water Temp Dewpoint Dewpoint Depression Visibility Wind Speed Wind Dir Waves Ship Positions

Superrunner

Last reported at 2017-Oct-02 12:59 UTC. Time now 2017-Oct-19 09:15 UTC.
Position N 37°57' E 023°38'.
Warning: this ship's position is 16 days out of date.

Length 100 m; draft 2.5 m.

Type: Ship. MMSI: 240931000.

Date/timePositionNaut miles runAvg speedWind from/ knotsBaromVisibWave heightAir tempDewpointWater temp
2017-Oct-02 12:59N 37°57' E 023°38'0 0.0
2017-Oct-02 12:29N 37°57' E 023°38'0 0.0
2017-Oct-02 12:00N 37°57' E 023°38'2 4.6
2017-Oct-02 11:30N 37°54' E 023°37'918.4
2017-Oct-02 11:00N 37°46' E 023°42'1019.6
2017-Oct-02 10:30N 37°39' E 023°51'1715.3
2017-Oct-02 09:22N 37°52' E 024°05'821.2
2017-Oct-02 09:00N 37°60' E 024°03'2 0.2
2017-Oct-01 18:19N 38°01' E 024°01'4227.4
2017-Oct-01 16:46N 37°41' E 024°48'1129.5
2017-Oct-01 16:23N 37°36' E 025°00'821.2
2017-Oct-01 16:00N 37°32' E 025°09'918.4
2017-Oct-01 15:30N 37°28' E 025°20'612.7
2017-Oct-01 15:01N 37°22' E 025°17'1529.0
2017-Oct-01 14:30N 37°09' E 025°09'3 5.1
2017-Oct-01 14:00N 37°06' E 025°08'1122.9
2017-Oct-01 13:31N 37°06' E 025°22'815.4
2017-Oct-01 13:01N 36°60' E 025°17'0 0.1
2017-Oct-01 09:25N 36°59' E 025°18'819.8
2017-Oct-01 09:00N 37°06' E 025°22'1119.9
2017-Oct-01 08:28N 37°07' E 025°09'2 3.8
2017-Oct-01 08:01N 37°06' E 025°07'1530.1
2017-Oct-01 07:31N 37°20' E 025°16'917.2
2017-Oct-01 07:01N 37°28' E 025°19'918.1
2017-Oct-01 06:31N 37°32' E 025°09'1326.3
2017-Oct-01 06:00N 37°38' E 024°54'3429.4
2017-Oct-01 04:52N 37°55' E 024°17'1029.7
2017-Oct-01 04:30N 37°59' E 024°05'4 0.1
2017-Sep-29 19:57N 38°01' E 024°01'4227.0
2017-Sep-29 18:23N 37°41' E 024°48'1129.8
2017-Sep-29 18:01N 37°36' E 025°00'919.0
2017-Sep-29 17:30N 37°31' E 025°10'815.9
2017-Sep-29 17:00N 37°28' E 025°20'918.6
2017-Sep-29 16:31N 37°32' E 025°09'1524.1
2017-Sep-29 15:54N 37°41' E 024°54'3225.4
2017-Sep-29 14:38N 37°57' E 024°19'528.8
2017-Sep-29 14:28N 37°58' E 024°13'10 0.5
2017-Sep-28 18:27N 38°01' E 024°01'4225.0
2017-Sep-28 16:45N 37°44' E 024°50'930.2
2017-Sep-28 16:28N 37°38' E 024°58'1123.2
2017-Sep-28 16:01N 37°32' E 025°09'918.6
2017-Sep-28 15:30N 37°28' E 025°20'713.6
2017-Sep-28 15:01N 37°21' E 025°17'1529.7
2017-Sep-28 14:31N 37°08' E 025°09'2 4.5
2017-Sep-28 14:01N 37°06' E 025°07'1223.1
2017-Sep-28 13:31N 37°06' E 025°22'713.1
2017-Sep-28 13:01N 37°01' E 025°17'2 0.5
2017-Sep-28 09:35N 36°59' E 025°18'231.5
2017-Sep-28 09:31N 37°01' E 025°18'612.8
2017-Sep-28 09:01N 37°07' E 025°21'1121.4
2017-Sep-28 08:30N 37°05' E 025°08'510.0
2017-Sep-28 07:59N 37°10' E 025°10'1430.6
2017-Sep-28 07:31N 37°23' E 025°17'5 9.7
2017-Sep-28 07:01N 37°28' E 025°18'917.4
2017-Sep-28 06:31N 37°32' E 025°08'1529.5
2017-Sep-28 06:01N 37°41' E 024°53'3227.5
2017-Sep-28 04:50N 37°55' E 024°16'929.2
2017-Sep-28 04:30N 37°59' E 024°06'4 0.4
2017-Sep-27 18:08N 38°01' E 024°01'110.7
2017-Sep-27 18:01N 38°01' E 024°02'4130.0
2017-Sep-27 16:39N 37°41' E 024°47'430.0
2017-Sep-27 16:31N 37°38' E 024°52'1529.5
2017-Sep-27 16:00N 37°32' E 025°09'917.1
2017-Sep-27 15:30N 37°28' E 025°18'510.7
2017-Sep-27 15:01N 37°23' E 025°17'1729.8
2017-Sep-27 14:27N 37°08' E 025°08'3 5.8
2017-Sep-27 14:00N 37°05' E 025°08'1122.1
2017-Sep-27 13:31N 37°07' E 025°21'612.0
2017-Sep-27 13:01N 37°02' E 025°18'3 0.7
2017-Sep-27 09:31N 36°59' E 025°17'031.4
2017-Sep-27 09:31N 36°60' E 025°18'815.1
2017-Sep-27 09:00N 37°06' E 025°22'1122.6
2017-Sep-27 08:31N 37°06' E 025°08'0 0.7
2017-Sep-27 08:00N 37°06' E 025°07'1530.8
2017-Sep-27 07:31N 37°20' E 025°16'816.5
2017-Sep-27 07:00N 37°28' E 025°19'918.2
2017-Sep-27 06:30N 37°32' E 025°09'1224.4
2017-Sep-27 06:01N 37°37' E 024°55'3529.8
2017-Sep-27 04:49N 37°54' E 024°16'929.5
2017-Sep-27 04:30N 37°59' E 024°06'5 0.5
2017-Sep-26 18:02N 38°01' E 024°01'110.8
2017-Sep-26 17:58N 38°01' E 024°02'4129.9
2017-Sep-26 16:35N 37°41' E 024°47'230.3
2017-Sep-26 16:30N 37°40' E 024°50'1530.6
2017-Sep-26 16:01N 37°32' E 025°07'815.4
2017-Sep-26 15:31N 37°29' E 025°15'510.6
2017-Sep-26 15:00N 37°24' E 025°17'1630.6
2017-Sep-26 14:29N 37°09' E 025°09'4 8.5
2017-Sep-26 14:00N 37°05' E 025°08'1020.5
2017-Sep-26 13:31N 37°07' E 025°21'611.9
2017-Sep-26 13:01N 37°02' E 025°18'3 0.8
2017-Sep-26 09:23N 36°59' E 025°18'821.0
2017-Sep-26 09:00N 37°06' E 025°22'918.5
2017-Sep-26 08:30N 37°09' E 025°11'4 8.5
2017-Sep-26 08:00N 37°06' E 025°08'1530.4
2017-Sep-26 07:31N 37°19' E 025°15'918.5
2017-Sep-26 07:00N 37°28' E 025°19'918.2
2017-Sep-26 06:30N 37°32' E 025°09'1223.6
2017-Sep-26 06:01N 37°37' E 024°56'3630.1
2017-Sep-26 04:49N 37°55' E 024°16'1029.9
2017-Sep-26 04:30N 37°59' E 024°06'4 0.4
2017-Sep-25 18:08N 38°01' E 024°01'215.6
2017-Sep-25 18:00N 38°01' E 024°03'4030.2
2017-Sep-25 16:40N 37°40' E 024°47'530.2
2017-Sep-25 16:31N 37°38' E 024°53'1428.6
2017-Sep-25 16:00N 37°32' E 025°09'917.6
2017-Sep-25 15:30N 37°28' E 025°19'4 7.1
2017-Sep-25 15:01N 37°25' E 025°17'1530.5
2017-Sep-25 14:31N 37°11' E 025°09'610.8
2017-Sep-25 14:00N 37°05' E 025°08'1021.5
2017-Sep-25 13:31N 37°07' E 025°21'612.6
2017-Sep-25 13:01N 37°01' E 025°18'2 0.6
2017-Sep-25 09:25N 36°59' E 025°18'819.4
2017-Sep-25 09:01N 37°06' E 025°22'1120.6
2017-Sep-25 08:29N 37°07' E 025°09'2 3.8
2017-Sep-25 08:00N 37°06' E 025°08'1530.3
2017-Sep-25 07:31N 37°20' E 025°16'917.4
2017-Sep-25 07:00N 37°28' E 025°19'918.2
2017-Sep-25 06:30N 37°32' E 025°09'1325.4
2017-Sep-25 06:01N 37°37' E 024°55'3529.7
2017-Sep-25 04:50N 37°55' E 024°16'929.5
2017-Sep-25 04:31N 37°59' E 024°06'4 0.4
2017-Sep-24 18:31N 38°01' E 024°01'0 7.3
2017-Sep-24 18:30N 38°01' E 024°01'4227.4
2017-Sep-24 16:58N 37°41' E 024°47'1328.5
2017-Sep-24 16:31N 37°34' E 025°02'612.6
2017-Sep-24 16:01N 37°32' E 025°09'918.5
2017-Sep-24 15:30N 37°28' E 025°20'612.0
2017-Sep-24 15:01N 37°22' E 025°17'1530.2
2017-Sep-24 14:30N 37°08' E 025°09'3 5.2
2017-Sep-24 14:00N 37°06' E 025°08'1223.4
2017-Sep-24 13:30N 37°06' E 025°22'612.4
2017-Sep-24 13:01N 37°02' E 025°17'6 1.5
2017-Sep-24 09:13N 37°06' E 025°21'1 3.0
2017-Sep-24 09:01N 37°06' E 025°22'1121.4
2017-Sep-24 08:30N 37°08' E 025°09'1 2.8
2017-Sep-24 08:00N 37°06' E 025°08'1530.6
2017-Sep-24 07:30N 37°20' E 025°16'816.1
2017-Sep-24 07:01N 37°28' E 025°19'918.2
2017-Sep-24 06:30N 37°32' E 025°09'1224.6
2017-Sep-24 06:00N 37°37' E 024°55'3529.8
2017-Sep-24 04:50N 37°55' E 024°17'929.0
2017-Sep-24 04:30N 37°59' E 024°06'  

Dump ship's entire track history